createdAt,value
2022-10-01T00:00:20.136Z,65.17
2022-10-01T00:02:50.062Z,65.58
2022-10-01T00:05:19.767Z,65.75
2022-10-01T00:07:49.864Z,66.10
2022-10-01T00:10:19.814Z,66.37
2022-10-01T00:12:50.112Z,66.53
2022-10-01T00:15:21.912Z,66.45
2022-10-01T00:17:51.712Z,66.61
2022-10-01T00:20:21.640Z,66.53
2022-10-01T00:22:52.390Z,67.18
2022-10-01T00:25:22.518Z,67.25
2022-10-01T00:27:52.647Z,67.19
2022-10-01T00:30:23.812Z,66.92
2022-10-01T00:32:54.656Z,66.62
2022-10-01T00:35:24.411Z,66.44
2022-10-01T00:37:54.148Z,65.98
2022-10-01T00:40:24.389Z,65.86
2022-10-01T00:42:54.037Z,66.02
2022-10-01T00:45:25.178Z,66.63
2022-10-01T00:47:57.384Z,66.78
2022-10-01T00:50:31.478Z,66.53
2022-10-01T00:53:03.565Z,66.86
2022-10-01T00:55:37.099Z,67.02
2022-10-01T00:58:08.758Z,67.44
2022-10-01T01:00:40.887Z,67.37
2022-10-01T01:03:12.188Z,66.83
2022-10-01T01:05:41.931Z,66.44
2022-10-01T01:08:12.132Z,66.57
2022-10-01T01:10:52.162Z,66.68
2022-10-01T01:13:31.672Z,66.55
2022-10-01T01:16:08.443Z,66.52
2022-10-01T01:18:44.398Z,66.45
2022-10-01T01:21:21.725Z,66.72
2022-10-01T01:24:12.781Z,67.81
2022-10-01T01:26:54.195Z,66.92
2022-10-01T01:29:28.381Z,66.83
2022-10-01T01:32:09.440Z,66.67
2022-10-01T01:34:44.568Z,67.21
2022-10-01T01:37:18.851Z,67.15
2022-10-01T01:39:53.869Z,66.78
2022-10-01T01:42:28.268Z,66.98
2022-10-01T01:45:03.933Z,66.70
2022-10-01T01:47:35.417Z,66.48
2022-10-01T01:50:07.614Z,66.49
2022-10-01T01:52:38.296Z,66.66
2022-10-01T01:55:09.844Z,66.85
2022-10-01T01:57:43.388Z,66.87
2022-10-01T02:00:15.106Z,66.76
2022-10-01T02:02:50.287Z,66.83
2022-10-01T02:05:23.578Z,67.11
2022-10-01T02:08:22.807Z,66.72
2022-10-01T02:11:15.891Z,66.78
2022-10-01T02:13:55.210Z,66.27
2022-10-01T02:16:34.360Z,66.62
2022-10-01T02:19:11.962Z,66.92
2022-10-01T02:21:43.050Z,66.75
2022-10-01T02:24:22.009Z,67.19
2022-10-01T02:26:54.586Z,67.27
2022-10-01T02:29:25.344Z,67.36
2022-10-01T02:31:58.421Z,67.51
2022-10-01T02:34:31.251Z,67.17
2022-10-01T02:37:05.862Z,67.10
2022-10-01T02:39:37.503Z,67.64
2022-10-01T02:42:09.213Z,67.68
2022-10-01T02:44:42.631Z,67.41
2022-10-01T02:47:19.814Z,67.48
2022-10-01T02:49:50.945Z,67.55
2022-10-01T02:52:29.841Z,67.98
2022-10-01T02:55:04.921Z,67.57
2022-10-01T02:57:34.749Z,68.60
2022-10-01T03:00:08.594Z,68.51
2022-10-01T03:02:39.756Z,68.01
2022-10-01T03:05:10.358Z,68.14
2022-10-01T03:07:40.895Z,69.05
2022-10-01T03:10:12.448Z,68.54
2022-10-01T03:12:45.149Z,68.20
2022-10-01T03:15:16.317Z,68.45
2022-10-01T03:17:47.973Z,67.85
2022-10-01T03:20:17.746Z,67.80
2022-10-01T03:22:48.994Z,68.41
2022-10-01T03:25:18.936Z,68.89
2022-10-01T03:27:49.657Z,67.66
2022-10-01T03:30:20.193Z,67.82
2022-10-01T03:32:51.374Z,67.83
2022-10-01T03:35:21.290Z,67.88
2022-10-01T03:37:50.983Z,68.38
2022-10-01T03:40:20.641Z,67.91
2022-10-01T03:42:51.134Z,67.89
2022-10-01T03:45:20.919Z,68.01
2022-10-01T03:47:54.479Z,68.04
2022-10-01T03:50:24.425Z,68.13
2022-10-01T03:52:54.176Z,68.65
2022-10-01T03:55:25.310Z,68.54
2022-10-01T03:57:55.005Z,67.91
2022-10-01T04:00:24.713Z,67.99
2022-10-01T04:02:56.569Z,68.37
2022-10-01T04:05:26.376Z,68.32
2022-10-01T04:07:56.402Z,68.42
2022-10-01T04:10:26.152Z,67.22
2022-10-01T04:12:57.034Z,67.46
2022-10-01T04:15:27.977Z,67.95
2022-10-01T04:17:59.147Z,67.93
2022-10-01T04:20:29.017Z,67.71
2022-10-01T04:22:58.762Z,67.34
2022-10-01T04:25:29.427Z,67.51
2022-10-01T04:28:01.116Z,67.75
2022-10-01T04:30:32.856Z,69.10
2022-10-01T04:33:04.840Z,68.81
2022-10-01T04:35:35.186Z,68.47
2022-10-01T04:38:06.376Z,68.47
2022-10-01T04:40:37.421Z,68.45
2022-10-01T04:43:09.634Z,68.49
2022-10-01T04:45:39.516Z,68.23
2022-10-01T04:48:14.036Z,69.26
2022-10-01T04:50:43.843Z,70.12
2022-10-01T04:53:13.582Z,69.11
2022-10-01T04:55:43.809Z,68.64
2022-10-01T04:58:13.588Z,69.15
2022-10-01T05:00:43.399Z,69.06
2022-10-01T05:03:14.574Z,68.29
2022-10-01T05:05:44.546Z,68.40
2022-10-01T05:08:14.519Z,67.65
2022-10-01T05:10:44.399Z,67.42
2022-10-01T05:13:14.645Z,66.83
2022-10-01T05:15:45.506Z,66.38
2022-10-01T05:18:16.793Z,66.15
2022-10-01T05:20:46.536Z,66.04
2022-10-01T05:23:16.324Z,65.85
2022-10-01T05:25:46.902Z,65.46
2022-10-01T05:28:21.970Z,64.89
2022-10-01T05:30:52.300Z,64.94
2022-10-01T05:33:23.440Z,64.68
2022-10-01T05:35:53.618Z,64.05
2022-10-01T05:38:24.093Z,64.14
2022-10-01T05:40:54.069Z,63.53
2022-10-01T05:43:25.554Z,63.17
2022-10-01T05:45:55.792Z,63.05
2022-10-01T05:48:27.033Z,63.25
2022-10-01T05:50:57.181Z,63.34
2022-10-01T05:53:28.696Z,63.82
2022-10-01T05:56:00.249Z,63.61
2022-10-01T05:58:30.284Z,62.79
2022-10-01T06:01:00.580Z,63.69
2022-10-01T06:03:32.040Z,63.71
2022-10-01T06:06:02.143Z,62.86
2022-10-01T06:08:32.128Z,62.56
2022-10-01T06:11:02.894Z,61.96
2022-10-01T06:13:33.246Z,62.16
2022-10-01T06:16:04.533Z,62.27
2022-10-01T06:18:37.057Z,61.82
2022-10-01T06:21:07.176Z,61.99
2022-10-01T06:23:37.622Z,62.04
2022-10-01T06:26:08.795Z,62.09
2022-10-01T06:28:38.558Z,61.94
2022-10-01T06:31:08.331Z,62.29
2022-10-01T06:33:39.800Z,62.21
2022-10-01T06:36:09.654Z,62.21
2022-10-01T06:38:39.574Z,62.35
2022-10-01T06:41:10.468Z,62.08
2022-10-01T06:43:40.251Z,62.04
2022-10-01T06:46:10.564Z,61.63
2022-10-01T06:48:42.009Z,61.73
2022-10-01T06:51:12.532Z,62.22
2022-10-01T06:53:42.338Z,62.14
2022-10-01T06:56:12.306Z,62.56
2022-10-01T06:58:42.564Z,62.73
2022-10-01T07:01:12.862Z,62.49
2022-10-01T07:03:44.254Z,62.12
2022-10-01T07:06:14.031Z,61.81
2022-10-01T07:08:43.745Z,61.13
2022-10-01T07:11:13.852Z,60.67
2022-10-01T07:13:43.751Z,60.48
2022-10-01T07:16:13.826Z,60.63
2022-10-01T07:18:45.471Z,60.50
2022-10-01T07:21:16.597Z,60.23
2022-10-01T07:23:46.496Z,59.36
2022-10-01T07:26:16.348Z,59.54
2022-10-01T07:28:46.672Z,59.63
2022-10-01T07:31:16.585Z,59.39
2022-10-01T07:33:48.529Z,59.62
2022-10-01T07:36:18.282Z,59.67
2022-10-01T07:38:50.952Z,58.96
2022-10-01T07:41:20.984Z,59.77
2022-10-01T07:43:51.078Z,59.50
2022-10-01T07:46:21.058Z,59.25
2022-10-01T07:48:52.230Z,59.41
2022-10-01T07:51:22.172Z,59.57
2022-10-01T07:53:51.980Z,59.00
2022-10-01T07:56:22.464Z,57.99
2022-10-01T07:58:55.967Z,57.61
2022-10-01T08:01:26.351Z,56.60
2022-10-01T08:03:58.405Z,56.84
2022-10-01T08:06:28.453Z,56.30
2022-10-01T08:08:58.281Z,56.23
2022-10-01T08:11:28.100Z,56.20
2022-10-01T08:13:57.960Z,55.92
2022-10-01T08:16:30.191Z,55.81
2022-10-01T08:19:01.582Z,54.99
2022-10-01T08:21:31.634Z,54.57
2022-10-01T08:24:02.162Z,54.30
2022-10-01T08:26:32.621Z,53.90
2022-10-01T08:29:02.799Z,54.14
2022-10-01T08:31:32.946Z,54.81
2022-10-01T08:34:04.340Z,54.08
2022-10-01T08:36:35.767Z,53.63
2022-10-01T08:39:06.038Z,53.55
2022-10-01T08:41:49.630Z,53.18
2022-10-01T08:44:21.823Z,52.95
2022-10-01T08:46:53.688Z,53.17
2022-10-01T08:49:29.981Z,53.28
2022-10-01T08:52:04.701Z,52.46
2022-10-01T08:54:39.945Z,52.34
2022-10-01T08:57:14.873Z,52.87
2022-10-01T08:59:47.276Z,51.30
2022-10-01T09:02:22.071Z,50.85
2022-10-01T09:05:01.261Z,50.80
2022-10-01T09:08:03.686Z,49.86
2022-10-01T09:10:44.473Z,50.65
2022-10-01T09:13:39.808Z,51.07
2022-10-01T09:16:19.685Z,49.66
2022-10-01T09:19:01.612Z,48.71
2022-10-01T09:21:48.524Z,48.65
2022-10-01T09:24:38.404Z,49.05
2022-10-01T09:27:15.217Z,50.02
2022-10-01T09:29:50.510Z,49.30
2022-10-01T09:32:25.726Z,48.59
2022-10-01T09:34:57.222Z,49.09
2022-10-01T09:37:39.519Z,49.27
2022-10-01T09:40:16.296Z,50.36
2022-10-01T09:42:47.767Z,50.77
2022-10-01T09:45:19.498Z,49.58
2022-10-01T09:47:52.641Z,49.82
2022-10-01T09:50:32.024Z,49.99
2022-10-01T09:53:04.251Z,49.06
2022-10-01T09:55:39.129Z,49.27
2022-10-01T09:58:14.353Z,49.00
2022-10-01T10:00:45.324Z,48.67
2022-10-01T10:03:24.485Z,48.14
2022-10-01T10:05:55.083Z,48.66
2022-10-01T10:08:29.882Z,48.85
2022-10-01T10:11:02.395Z,48.89
2022-10-01T10:13:35.056Z,48.73
2022-10-01T10:16:11.696Z,48.87
2022-10-01T10:18:42.502Z,48.32
2022-10-01T10:21:19.453Z,47.46
2022-10-01T10:23:53.513Z,47.45
2022-10-01T10:26:32.081Z,47.36
2022-10-01T10:29:03.911Z,46.90
2022-10-01T10:31:40.302Z,45.83
2022-10-01T10:34:17.171Z,46.07
2022-10-01T10:36:48.707Z,45.55
2022-10-01T10:39:24.482Z,46.57
2022-10-01T10:41:56.074Z,46.01
2022-10-01T10:44:30.260Z,45.97
2022-10-01T10:47:02.840Z,46.56
2022-10-01T10:49:34.612Z,45.75
2022-10-01T10:52:20.096Z,47.36
2022-10-01T10:54:52.495Z,48.48
2022-10-01T10:57:27.950Z,47.34
2022-10-01T10:59:59.976Z,46.56
2022-10-01T11:02:31.992Z,47.02
2022-10-01T11:05:06.754Z,46.16
2022-10-01T11:07:36.648Z,46.99
2022-10-01T11:10:24.542Z,45.76
2022-10-01T11:13:08.233Z,45.49
2022-10-01T11:15:53.380Z,45.46
2022-10-01T11:18:41.583Z,45.67
2022-10-01T11:21:23.536Z,45.57
2022-10-01T11:24:14.275Z,45.55
2022-10-01T11:26:54.313Z,44.25
2022-10-01T11:29:39.040Z,45.25
2022-10-01T11:32:23.479Z,44.23
2022-10-01T11:35:19.831Z,43.86
2022-10-01T11:38:01.716Z,44.56
2022-10-01T11:40:38.227Z,44.42
2022-10-01T11:43:18.075Z,44.79
2022-10-01T11:45:53.088Z,43.33
2022-10-01T11:48:29.877Z,43.62
2022-10-01T11:51:05.498Z,43.84
2022-10-01T11:53:40.700Z,43.94
2022-10-01T11:56:36.930Z,43.35
2022-10-01T11:59:13.387Z,43.42
2022-10-01T12:01:48.875Z,43.88
2022-10-01T12:04:32.918Z,44.11
2022-10-01T12:07:11.821Z,44.25
2022-10-01T12:09:51.672Z,44.01
2022-10-01T12:12:26.267Z,44.26
2022-10-01T12:15:07.005Z,44.88
2022-10-01T12:17:43.876Z,44.86
2022-10-01T12:20:24.648Z,45.15
2022-10-01T12:22:56.389Z,45.00
2022-10-01T12:25:32.402Z,44.03
2022-10-01T12:28:08.801Z,44.84
2022-10-01T12:30:47.260Z,44.68
2022-10-01T12:33:51.278Z,43.57
2022-10-01T12:36:28.855Z,44.53
2022-10-01T12:39:11.368Z,44.42
2022-10-01T12:41:52.061Z,43.99
2022-10-01T12:44:45.816Z,44.12
2022-10-01T12:47:28.456Z,44.58
2022-10-01T12:50:06.375Z,45.07
2022-10-01T12:52:45.125Z,43.85
2022-10-01T12:55:29.443Z,44.23
2022-10-01T12:58:07.916Z,44.33
2022-10-01T13:00:43.980Z,44.36
2022-10-01T13:03:46.282Z,44.10
2022-10-01T13:06:27.912Z,43.69
2022-10-01T13:09:08.323Z,43.49
2022-10-01T13:12:03.145Z,44.64
2022-10-01T13:14:36.027Z,44.85
2022-10-01T13:17:14.605Z,45.00
2022-10-01T13:19:51.731Z,44.41
2022-10-01T13:22:34.162Z,45.10
2022-10-01T13:25:22.588Z,45.31
2022-10-01T13:27:57.419Z,46.65
2022-10-01T13:30:35.599Z,46.56
2022-10-01T13:33:06.194Z,45.97
2022-10-01T13:35:40.989Z,46.67
2022-10-01T13:38:15.748Z,46.28
2022-10-01T13:40:46.300Z,44.93
2022-10-01T13:43:19.210Z,44.99
2022-10-01T13:45:50.990Z,44.67
2022-10-01T13:48:23.666Z,45.18
2022-10-01T13:51:05.162Z,44.91
2022-10-01T13:53:38.074Z,45.76
2022-10-01T13:56:09.459Z,45.73
2022-10-01T13:58:40.788Z,45.32
2022-10-01T14:01:30.374Z,46.50
2022-10-01T14:04:08.054Z,46.14
2022-10-01T14:06:48.166Z,47.15
2022-10-01T14:09:23.871Z,47.56
2022-10-01T14:12:14.577Z,46.64
2022-10-01T14:15:09.552Z,46.84
2022-10-01T14:17:39.883Z,47.86
2022-10-01T14:20:17.789Z,48.18
2022-10-01T14:23:03.850Z,48.81
2022-10-01T14:25:45.178Z,48.23
2022-10-01T14:28:42.011Z,48.51
2022-10-01T14:31:19.644Z,48.16
2022-10-01T14:34:16.351Z,48.33
2022-10-01T14:36:49.269Z,48.84
2022-10-01T14:39:22.493Z,48.88
2022-10-01T14:41:54.318Z,49.47
2022-10-01T14:44:27.338Z,49.48
2022-10-01T14:46:58.990Z,49.82
2022-10-01T14:49:30.938Z,50.09
2022-10-01T14:52:03.683Z,50.22
2022-10-01T14:54:43.729Z,50.37
2022-10-01T14:57:20.907Z,50.44
2022-10-01T14:59:50.794Z,50.50
2022-10-01T15:02:22.593Z,51.00
2022-10-01T15:04:56.273Z,50.79
2022-10-01T15:07:29.198Z,50.64
2022-10-01T15:10:09.008Z,50.96
2022-10-01T15:12:41.443Z,50.19
2022-10-01T15:15:20.527Z,50.39
2022-10-01T15:17:51.244Z,50.62
2022-10-01T15:20:21.239Z,50.70
2022-10-01T15:22:58.988Z,50.94
2022-10-01T15:25:32.919Z,51.14
2022-10-01T15:28:02.813Z,51.34
2022-10-01T15:30:37.091Z,51.71
2022-10-01T15:33:10.204Z,51.65
2022-10-01T15:35:40.589Z,51.75
2022-10-01T15:38:12.263Z,52.34
2022-10-01T15:40:43.647Z,52.11
2022-10-01T15:43:23.973Z,51.61
2022-10-01T15:46:18.317Z,52.51
2022-10-01T15:48:48.187Z,52.98
2022-10-01T15:51:20.237Z,52.87
2022-10-01T15:53:49.921Z,53.29
2022-10-01T15:56:23.829Z,53.66
2022-10-01T15:58:54.880Z,53.76
2022-10-01T16:01:26.079Z,53.40
2022-10-01T16:03:57.303Z,53.48
2022-10-01T16:06:29.240Z,54.06
2022-10-01T16:09:06.915Z,53.73
2022-10-01T16:11:51.908Z,53.88
2022-10-01T16:14:30.681Z,54.37
2022-10-01T16:17:33.618Z,54.68
2022-10-01T16:20:24.411Z,55.06
2022-10-01T16:23:17.936Z,55.18
2022-10-01T16:25:47.899Z,54.99
2022-10-01T16:28:27.345Z,55.38
2022-10-01T16:30:57.008Z,55.31
2022-10-01T16:33:26.916Z,55.80
2022-10-01T16:36:09.094Z,55.56
2022-10-01T16:38:39.982Z,56.00
2022-10-01T16:41:10.563Z,55.97
2022-10-01T16:43:40.325Z,56.16
2022-10-01T16:46:09.965Z,56.25
2022-10-01T16:48:39.772Z,56.52
2022-10-01T16:51:09.257Z,56.83
2022-10-01T16:53:42.785Z,56.62
2022-10-01T16:56:12.428Z,57.24
2022-10-01T16:58:43.144Z,57.33
2022-10-01T17:01:14.699Z,57.21
2022-10-01T17:03:44.980Z,57.26
2022-10-01T17:06:14.961Z,57.49
2022-10-01T17:08:45.907Z,57.59
2022-10-01T17:11:16.343Z,57.33
2022-10-01T17:13:46.068Z,57.61
2022-10-01T17:16:15.902Z,57.61
2022-10-01T17:18:46.007Z,57.71
2022-10-01T17:21:15.709Z,57.83
2022-10-01T17:23:50.044Z,58.25
2022-10-01T17:26:22.810Z,58.09
2022-10-01T17:28:52.407Z,58.45
2022-10-01T17:31:22.038Z,57.93
2022-10-01T17:33:52.336Z,57.45
2022-10-01T17:36:22.183Z,57.69
2022-10-01T17:38:53.118Z,57.83
2022-10-01T17:41:22.611Z,57.86
2022-10-01T17:43:52.434Z,57.46
2022-10-01T17:46:22.301Z,57.39
2022-10-01T17:48:52.246Z,57.74
2022-10-01T17:51:21.790Z,57.73
2022-10-01T17:53:54.969Z,57.82
2022-10-01T17:56:24.562Z,57.34
2022-10-01T17:58:54.403Z,57.39
2022-10-01T18:01:24.017Z,56.52
2022-10-01T18:03:54.473Z,56.32
2022-10-01T18:06:24.535Z,55.70
2022-10-01T18:08:56.680Z,54.74
2022-10-01T18:11:27.628Z,55.07
2022-10-01T18:13:57.548Z,54.87
2022-10-01T18:16:28.067Z,54.80
2022-10-01T18:21:48.375Z,54.87
2022-10-01T18:24:19.452Z,54.57
2022-10-01T18:26:49.325Z,54.37
2022-10-01T18:29:20.391Z,54.68
2022-10-01T18:31:53.110Z,55.01
2022-10-01T18:34:26.436Z,55.35
2022-10-01T18:36:59.432Z,55.59
2022-10-01T18:39:34.470Z,55.89
2022-10-01T18:42:10.729Z,56.28
2022-10-01T18:44:40.342Z,56.82
2022-10-01T18:47:17.071Z,57.14
2022-10-01T18:49:55.189Z,57.46
2022-10-01T18:52:33.346Z,57.61
2022-10-01T18:55:21.100Z,58.09
2022-10-01T18:58:01.058Z,58.20
2022-10-01T19:00:36.705Z,58.07
2022-10-01T19:03:17.393Z,57.95
2022-10-01T19:05:54.620Z,58.21
2022-10-01T19:08:33.917Z,57.71
2022-10-01T19:11:17.836Z,56.66
2022-10-01T19:13:54.013Z,56.38
2022-10-01T19:16:34.031Z,55.14
2022-10-01T19:19:12.597Z,54.81
2022-10-01T19:21:46.187Z,53.88
2022-10-01T19:24:24.278Z,53.45
2022-10-01T19:26:58.978Z,53.36
2022-10-01T19:29:38.641Z,53.81
2022-10-01T19:32:12.120Z,54.26
2022-10-01T19:34:43.961Z,54.40
2022-10-01T19:37:15.950Z,54.44
2022-10-01T19:39:47.253Z,53.26
2022-10-01T19:42:21.672Z,53.17
2022-10-01T19:44:54.573Z,52.67
2022-10-01T19:47:28.665Z,52.70
2022-10-01T19:50:00.772Z,52.65
2022-10-01T19:52:39.710Z,52.64
2022-10-01T19:55:14.586Z,52.33
2022-10-01T19:57:45.865Z,52.22
2022-10-01T20:00:19.144Z,52.38
2022-10-01T20:02:54.589Z,52.60
2022-10-01T20:05:29.386Z,52.74
2022-10-01T20:08:00.888Z,52.61
2022-10-01T20:10:34.671Z,52.93
2022-10-01T20:13:12.784Z,53.25
2022-10-01T20:15:47.644Z,53.33
2022-10-01T20:18:27.766Z,53.12
2022-10-01T20:21:05.463Z,53.25
2022-10-01T20:23:40.256Z,53.18
2022-10-01T20:26:16.801Z,53.32
2022-10-01T20:28:53.685Z,53.13
2022-10-01T20:31:28.666Z,53.12
2022-10-01T20:34:03.932Z,53.22
2022-10-01T20:36:36.316Z,53.86
2022-10-01T20:39:10.657Z,53.71
2022-10-01T20:41:44.205Z,54.24
2022-10-01T20:44:18.469Z,54.18
2022-10-01T20:46:48.788Z,54.62
2022-10-01T20:49:23.268Z,54.62
2022-10-01T20:51:58.146Z,53.89
2022-10-01T20:54:32.596Z,54.04
2022-10-01T20:57:05.064Z,54.31
2022-10-01T20:59:38.924Z,54.67
2022-10-01T21:02:19.552Z,54.21
2022-10-01T21:04:52.106Z,54.51
2022-10-01T21:07:28.937Z,54.17
2022-10-01T21:09:59.674Z,53.70
2022-10-01T21:12:30.820Z,52.94
2022-10-01T21:15:02.522Z,52.98
2022-10-01T21:17:39.354Z,52.56
2022-10-01T21:20:21.025Z,52.66
2022-10-01T21:22:57.721Z,52.09
2022-10-01T21:25:32.208Z,52.15
2022-10-01T21:28:12.399Z,52.28
2022-10-01T21:30:53.725Z,52.20
2022-10-01T21:33:25.892Z,52.61
2022-10-01T21:35:58.145Z,52.81
2022-10-01T21:38:31.548Z,52.41
2022-10-01T21:41:13.152Z,52.61
2022-10-01T21:43:47.611Z,52.56
2022-10-01T21:46:22.127Z,51.63
2022-10-01T21:48:57.220Z,51.62
2022-10-01T21:51:35.427Z,51.57
2022-10-01T21:54:25.610Z,51.78
2022-10-01T21:57:03.356Z,51.66
2022-10-01T21:59:42.052Z,51.25
2022-10-01T22:02:19.529Z,51.89
2022-10-01T22:04:50.242Z,51.57
2022-10-01T22:07:24.032Z,51.59
2022-10-01T22:10:03.416Z,51.58
2022-10-01T22:12:36.229Z,51.49
2022-10-01T22:15:16.805Z,51.56
2022-10-01T22:17:50.157Z,51.64
2022-10-01T22:20:21.140Z,51.47
2022-10-01T22:22:53.179Z,51.10
2022-10-01T22:25:22.697Z,50.94
2022-10-01T22:27:54.998Z,51.18
2022-10-01T22:30:27.389Z,51.30
2022-10-01T22:33:01.294Z,51.68
2022-10-01T22:35:33.771Z,52.05
2022-10-01T22:38:06.462Z,52.33
2022-10-01T22:40:40.433Z,52.59
2022-10-01T22:43:11.075Z,52.57
2022-10-01T22:45:47.667Z,52.74
2022-10-01T22:48:28.224Z,52.48
2022-10-01T22:51:08.707Z,52.88
2022-10-01T22:53:44.253Z,52.98
2022-10-01T22:56:19.460Z,53.43
2022-10-01T22:58:59.360Z,53.63
2022-10-01T23:01:35.253Z,53.78
2022-10-01T23:04:11.811Z,53.28
2022-10-01T23:06:42.738Z,53.25
2022-10-01T23:09:14.751Z,53.50
2022-10-01T23:11:49.078Z,53.69
2022-10-01T23:14:25.609Z,53.48
2022-10-01T23:17:00.041Z,53.56
2022-10-01T23:19:36.212Z,55.25
2022-10-01T23:22:09.039Z,56.70
2022-10-01T23:24:46.120Z,57.62
2022-10-01T23:27:21.917Z,58.22
2022-10-01T23:30:00.165Z,58.85
2022-10-01T23:32:40.863Z,60.28
2022-10-01T23:35:14.399Z,61.37
2022-10-01T23:38:00.530Z,62.16
2022-10-01T23:40:32.973Z,62.87
2022-10-01T23:43:06.621Z,63.16
2022-10-01T23:45:39.218Z,63.14
2022-10-01T23:48:13.568Z,63.13
2022-10-01T23:50:49.531Z,63.60
2022-10-01T23:53:22.156Z,63.57
2022-10-01T23:56:14.547Z,63.76
2022-10-01T23:58:48.132Z,64.73
